Laramie, WY

4:14 PM MST on December 21, 2014 (GMT -0700)
Laramie | Change Station
CLOSE
Current Station
Personal Weather Station
Location: Laramie, WY
Elevation: 7201 ft
Nearby Weather Stations
Active Advisory: Winter Weather Advisory

Elev 7201 ft 41.31 °N, 105.58 °W | Updated 14 minutes ago

Snow
Snow
35.4 °F
Feels Like 31 °F
N
5.4
Wind Variable Wind from NE
Gusts 14.5 mph

Today
High -- | Low -- °F
--% Chance of Precip.
Yesterday
High -- | Low -- °F
Precip. -- in
7:24 AM 4:36 PM
Waning Crescent, 0% visible
Pressure 29.54 in
Visibility 10.0 miles
Clouds Overcast 6000 ft
Windchill 31 °F
Dew Point 31 °F
Humidity 85%
Rainfall 0.00 in
Snow Depth Not available.
UV 0 out of 12
Pollen .10 out of 12
Air Quality Not available.
Flu Activity Not available.
METAR KLAR 212253Z AUTO 28012KT 10SM OVC060 01/M01 A2956 RMK AO2 SLP002 T00111011

More Conditions Fewer Conditions

Pressure 29.54 in
Visibility 10.0 miles
Clouds Overcast 6000 ft
Windchill 31 °F
Dew Point 31 °F
Humidity 85%
Rainfall 0.00 in
Snow Depth Not available.
UV 0 out of 12
Pollen .10 out of 12
Air Quality Not available.
Flu Activity Not available.
METAR KLAR 212253Z AUTO 28012KT 10SM OVC060 01/M01 A2956 RMK AO2 SLP002 T00111011

More Conditions Fewer Conditions

10-Day Weather Forecast

Almanac

Astronomy

Dec. 21, 2014 Rise Set
Actual Time
Civil Twilight
Nautical Twilight
Astronomical Twilight
Moon
Length of Visible Light
Length of Day
Tomorrow will be .
, % of the Moon is Illuminated

Today's Extremes

State Highs State Lows

Community

WunderPhotos

Upload Photos

1,779,502 photos uploaded!

WunderBlogs® & News

Nearby

Air Quality

  Air Quality AQ Index Pollutant
Not available.

Snow Depth

Station Depth Elevation

Earthquake Activity

City Distance Mag. Time & Date
Minimum magnitude displayed is 2.5.

Coastal Water Temperatures

Place Temperature

Nearby Weather Stations